Time;durP1;ratioP1;P1;durP2;ratioP2;P2;SDS_P1;SDS_P2;PMS_P1;PMS_P2;Temp;Humidity;BMP_temperature;BMP_pressure;BME280_temperature;BME280_humidity;BME280_pressure;Samples;Min_cycle;Max_cycle;Signal;HPM_P1;HPM_P2
2024/01/15 02:29:26;;;;;;;44.10;20.60;;;;;;;-147.86;100.00;-17609.17;102714;1291;600965;-43
2024/01/15 02:31:54;;;;;;;43.90;20.10;;;;;;;-147.86;100.00;-17609.17;105101;1269;59334;-43
2024/01/15 02:34:22;;;;;;;43.60;20.40;;;;;;;-147.86;100.00;-17609.17;105076;1268;59186;-44
2024/01/15 02:36:50;;;;;;;44.50;19.80;;;;;;;-147.86;100.00;-17609.17;104889;1267;71051;-43
2024/01/15 02:39:18;;;;;;;42.90;22.30;;;;;;;-147.86;100.00;-17609.17;104883;1270;65191;-43
2024/01/15 02:41:46;;;;;;;44.40;21.20;;;;;;;-147.86;100.00;-17609.17;104867;1266;70189;-43
2024/01/15 03:09:43;;;;;;;39.50;21.40;;;;;;;-147.86;100.00;-17609.17;102650;1292;600519;-43
2024/01/15 03:12:11;;;;;;;45.80;21.80;;;;;;;-147.86;100.00;-17609.17;104802;1267;59700;-42
2024/01/15 03:14:39;;;;;;;40.40;20.50;;;;;;;-147.86;100.00;-17609.17;105607;1260;59280;-47
2024/01/15 03:17:09;;;;;;;46.80;22.20;;;;;;;-147.86;100.00;-17609.17;105590;1260;71972;-43
2024/01/15 03:19:36;;;;;;;43.00;21.20;;;;;;;-147.86;100.00;-17609.17;105624;1259;64126;-43
2024/01/15 03:22:05;;;;;;;42.10;20.50;;;;;;;-147.86;100.00;-17609.17;105620;1257;71390;-43
2024/01/15 03:24:32;;;;;;;48.10;23.10;;;;;;;-147.86;100.00;-17609.17;105592;1256;235139;-43
2024/01/15 03:27:00;;;;;;;42.70;21.20;;;;;;;-147.86;100.00;-17609.17;105727;1258;59633;-43
2024/01/15 03:29:28;;;;;;;44.00;21.80;;;;;;;-147.86;100.00;-17609.17;105810;1257;71204;-41
2024/01/15 03:31:56;;;;;;;45.90;22.30;;;;;;;-147.86;100.00;-17609.17;105842;1254;65149;-42
2024/01/15 03:34:23;;;;;;;44.50;21.60;;;;;;;-147.86;100.00;-17609.17;105816;1253;71198;-43
2024/01/15 03:36:51;;;;;;;44.40;21.00;;;;;;;-147.86;100.00;-17609.17;105738;1259;59689;-43
2024/01/15 03:39:19;;;;;;;50.60;23.10;;;;;;;-147.86;100.00;-17609.17;105827;1259;59635;-42
2024/01/15 03:41:47;;;;;;;48.50;23.00;;;;;;;-147.86;100.00;-17609.17;105772;1253;71835;-41
2024/01/15 03:44:14;;;;;;;49.70;22.80;;;;;;;-147.86;100.00;-17609.17;105735;1258;64191;-43
2024/01/15 03:46:43;;;;;;;48.20;23.80;;;;;;;-147.86;100.00;-17609.17;105798;1257;72548;-42
2024/01/15 03:49:10;;;;;;;45.50;21.70;;;;;;;-147.86;100.00;-17609.17;105706;1257;59832;-43
2024/01/15 03:51:38;;;;;;;45.60;22.00;;;;;;;-147.86;100.00;-17609.17;105717;1258;59660;-42
2024/01/15 03:54:06;;;;;;;45.40;22.10;;;;;;;-147.86;100.00;-17609.17;105729;1253;71756;-43
2024/01/15 03:56:35;;;;;;;48.40;22.60;;;;;;;-147.86;100.00;-17609.17;105770;1254;64014;-42
2024/01/15 03:59:03;;;;;;;44.30;21.70;;;;;;;-147.86;100.00;-17609.17;105737;1254;70518;-43
2024/01/15 04:01:31;;;;;;;44.00;22.10;;;;;;;-147.86;100.00;-17609.17;105722;1254;60826;-43
2024/01/15 04:03:59;;;;;;;45.90;21.60;;;;;;;-147.86;100.00;-17609.17;105832;1258;59630;-44
2024/01/15 04:06:27;;;;;;;47.20;21.30;;;;;;;-147.86;100.00;-17609.17;105886;1254;71799;-43
2024/01/15 04:08:56;;;;;;;48.80;21.50;;;;;;;-147.86;100.00;-17609.17;105697;1257;65169;-43
2024/01/15 04:11:23;;;;;;;45.10;21.00;;;;;;;-147.86;100.00;-17609.17;105669;1259;72647;-43
2024/01/15 04:13:51;;;;;;;44.80;20.80;;;;;;;-147.86;100.00;-17609.17;105687;1254;60440;-43
2024/01/15 04:16:20;;;;;;;47.00;21.20;;;;;;;-147.86;100.00;-17609.17;105651;1254;59553;-42
2024/01/15 04:18:48;;;;;;;42.20;21.80;;;;;;;-147.86;100.00;-17609.17;105680;1257;72805;-42
2024/01/15 04:21:18;;;;;;;49.50;21.50;;;;;;;-147.86;100.00;-17609.17;105695;1258;63942;-43
2024/01/15 04:23:46;;;;;;;46.10;21.90;;;;;;;-147.86;100.00;-17609.17;105681;1257;71514;-43
2024/01/15 04:26:14;;;;;;;48.30;21.90;;;;;;;-147.86;100.00;-17609.17;105661;1254;59631;-43
2024/01/15 04:28:41;;;;;;;48.20;22.50;;;;;;;-147.86;100.00;-17609.17;105670;1255;59928;-43
2024/01/15 04:31:09;;;;;;;44.70;21.40;;;;;;;-147.86;100.00;-17609.17;105661;1259;72255;-43
2024/01/15 04:33:37;;;;;;;42.90;20.20;;;;;;;-147.86;100.00;-17609.17;105654;1254;63939;-42
2024/01/15 04:36:06;;;;;;;39.60;20.80;;;;;;;-147.86;100.00;-17609.17;105648;1254;71062;-43
2024/01/15 04:38:36;;;;;;;47.40;21.20;;;;;;;-147.86;100.00;-17609.17;105746;1254;59721;-43
2024/01/15 04:41:03;;;;;;;43.60;22.10;;;;;;;-147.86;100.00;-17609.17;105705;1254;60070;-43
2024/01/15 04:43:32;;;;;;;43.80;20.80;;;;;;;-147.86;100.00;-17609.17;105858;1255;71797;-43
2024/01/15 04:46:00;;;;;;;49.20;22.50;;;;;;;-147.86;100.00;-17609.17;105707;1254;63217;-43
2024/01/15 05:09:36;;;;;;;;;;;;;;;-147.86;100.00;-17609.17;102719;1293;600424;-44
2024/01/15 05:12:04;;;;;;;36.70;18.40;;;;;;;-147.86;100.00;-17609.17;104917;1265;59221;-44
2024/01/15 05:14:32;;;;;;;43.20;18.90;;;;;;;-147.86;100.00;-17609.17;104846;1270;59942;-43
2024/01/15 05:17:00;;;;;;;40.30;19.80;;;;;;;-147.86;100.00;-17609.17;104932;1271;71007;-43
2024/01/15 05:19:27;;;;;;;43.40;19.90;;;;;;;-147.86;100.00;-17609.17;105223;1257;63891;-43
2024/01/15 05:21:56;;;;;;;39.30;20.40;;;;;;;-147.86;100.00;-17609.17;105375;1262;71620;-43
2024/01/15 05:24:26;;;;;;;35.20;19.10;;;;;;;-147.86;100.00;-17609.17;105408;1260;277062;-43
2024/01/15 05:26:54;;;;;;;39.10;18.90;;;;;;;-147.86;100.00;-17609.17;105677;1257;59967;-44
2024/01/15 05:29:22;;;;;;;39.80;20.30;;;;;;;-147.86;100.00;-17609.17;105628;1257;70966;-43
2024/01/15 05:31:50;;;;;;;37.70;19.10;;;;;;;-147.86;100.00;-17609.17;105576;1257;63899;-43
2024/01/15 05:34:17;;;;;;;40.50;20.30;;;;;;;-147.86;100.00;-17609.17;105548;1260;71433;-43
2024/01/15 05:36:47;;;;;;;38.70;19.40;;;;;;;-147.86;100.00;-17609.17;105538;1260;59721;-43
2024/01/15 05:39:15;;;;;;;42.40;20.90;;;;;;;-147.86;100.00;-17609.17;105610;1261;59711;-42
2024/01/15 05:41:44;;;;;;;39.20;18.20;;;;;;;-147.86;100.00;-17609.17;105529;1257;72044;-43
2024/01/15 05:44:11;;;;;;;37.10;19.10;;;;;;;-147.86;100.00;-17609.17;105598;1256;65301;-45
2024/01/15 05:46:39;;;;;;;39.80;20.90;;;;;;;-147.86;100.00;-17609.17;105582;1257;71437;-43
2024/01/15 05:49:07;;;;;;;40.00;20.00;;;;;;;-147.86;100.00;-17609.17;105543;1260;60420;-43
2024/01/15 05:51:35;;;;;;;36.50;18.80;;;;;;;-147.86;100.00;-17609.17;105574;1260;59670;-43
2024/01/15 05:54:04;;;;;;;41.40;19.30;;;;;;;-147.86;100.00;-17609.17;105606;1260;72690;-43
2024/01/15 05:56:32;;;;;;;41.90;20.90;;;;;;;-147.86;100.00;-17609.17;105655;1255;64050;-44
2024/01/15 05:58:59;;;;;;;39.70;20.80;;;;;;;-147.86;100.00;-17609.17;105601;1256;71377;-43
2024/01/15 06:01:27;;;;;;;39.90;19.90;;;;;;;-147.86;100.00;-17609.17;105565;1261;60810;-43
2024/01/15 06:03:55;;;;;;;48.40;21.60;;;;;;;-147.86;100.00;-17609.17;105628;1260;59549;-43
2024/01/15 06:06:24;;;;;;;43.50;20.20;;;;;;;-147.86;100.00;-17609.17;105477;1258;73775;-43
2024/01/15 06:08:52;;;;;;;41.10;20.20;;;;;;;-147.86;100.00;-17609.17;105531;1262;63946;-42
2024/01/15 06:11:20;;;;;;;39.90;20.50;;;;;;;-147.86;100.00;-17609.17;105441;1264;71741;-43
2024/01/15 06:13:47;;;;;;;40.00;19.40;;;;;;;-147.86;100.00;-17609.17;105442;1261;59790;-43
2024/01/15 06:16:20;;;;;;;41.20;20.00;;;;;;;-147.86;100.00;-17609.17;105412;1260;59600;-43
2024/01/15 06:18:47;;;;;;;40.50;19.50;;;;;;;-147.86;100.00;-17609.17;105443;1263;73104;-43
2024/01/15 06:21:16;;;;;;;42.30;20.50;;;;;;;-147.86;100.00;-17609.17;105412;1264;63940;-43
2024/01/15 06:23:44;;;;;;;40.20;19.10;;;;;;;-147.86;100.00;-17609.17;105363;1263;71406;-43
2024/01/15 07:08:32;;;;;;;;;;;;;;;-147.86;100.00;-17609.17;102773;1295;600060;-43
2024/01/15 07:11:03;;;;;;;37.20;18.50;;;;;;;-147.86;100.00;-17609.17;105212;1268;59266;-43
2024/01/15 07:13:32;;;;;;;43.20;20.50;;;;;;;-147.86;100.00;-17609.17;105135;1269;59356;-43
2024/01/15 07:16:00;;;;;;;38.30;19.90;;;;;;;-147.86;100.00;-17609.17;105055;1265;73407;-43
2024/01/15 07:18:28;;;;;;;40.30;19.80;;;;;;;-147.86;100.00;-17609.17;105009;1269;65261;-43
2024/01/15 07:20:56;;;;;;;38.40;19.50;;;;;;;-147.86;100.00;-17609.17;105016;1269;71454;-43
2024/01/15 07:23:24;;;;;;;37.20;19.10;;;;;;;-147.86;100.00;-17609.17;105065;1263;186688;-43
2024/01/15 07:25:54;;;;;;;38.40;19.70;;;;;;;-147.86;100.00;-17609.17;105230;1267;59326;-43
2024/01/15 07:28:23;;;;;;;42.10;20.40;;;;;;;-147.86;100.00;-17609.17;105183;1262;71173;-44
2024/01/15 07:30:52;;;;;;;41.10;20.10;;;;;;;-147.86;100.00;-17609.17;105225;1262;63912;-44
2024/01/15 07:33:20;;;;;;;37.80;19.60;;;;;;;-147.86;100.00;-17609.17;105213;1264;71346;-43
2024/01/15 07:35:47;;;;;;;42.00;20.10;;;;;;;-147.86;100.00;-17609.17;105185;1266;59740;-42
2024/01/15 07:38:15;;;;;;;41.90;20.30;;;;;;;-147.86;100.00;-17609.17;105181;1267;59576;-43
2024/01/15 07:40:43;;;;;;;40.40;19.60;;;;;;;-147.86;100.00;-17609.17;105169;1264;73683;-44
2024/01/15 07:43:11;;;;;;;40.60;18.60;;;;;;;-147.86;100.00;-17609.17;105224;1267;64010;-43
2024/01/15 07:45:38;;;;;;;38.70;20.50;;;;;;;-147.86;100.00;-17609.17;105179;1276;72440;-43
2024/01/15 07:48:09;;;;;;;35.00;18.70;;;;;;;-147.86;100.00;-17609.17;105189;1266;59752;-43
2024/01/15 07:50:38;;;;;;;38.40;20.20;;;;;;;-147.86;100.00;-17609.17;105218;1266;61198;-43
2024/01/15 07:53:05;;;;;;;36.50;18.00;;;;;;;-147.86;100.00;-17609.17;105220;1264;72866;-44
2024/01/15 07:55:33;;;;;;;41.30;20.80;;;;;;;-147.86;100.00;-17609.17;105212;1275;67703;-43
2024/01/15 07:58:01;;;;;;;43.50;19.30;;;;;;;-147.86;100.00;-17609.17;105172;1267;72546;-44
2024/01/15 08:00:42;;;;;;;37.40;19.50;;;;;;;-147.86;100.00;-17609.17;105925;1252;59835;-43
2024/01/15 08:03:12;;;;;;;35.80;19.20;;;;;;;-147.86;100.00;-17609.17;105993;1257;60143;-44
2024/01/15 08:05:40;;;;;;;35.10;19.00;;;;;;;-147.86;100.00;-17609.17;105946;1258;74185;-43
2024/01/15 08:08:08;;;;;;;44.30;19.80;;;;;;;-147.86;100.00;-17609.17;105874;1257;63905;-43
2024/01/15 08:10:36;;;;;;;32.60;18.70;;;;;;;-147.86;100.00;-17609.17;105888;1251;72599;-43
2024/01/15 08:13:04;;;;;;;32.90;17.60;;;;;;;-147.86;100.00;-17609.17;105902;1256;60901;-43
2024/01/15 08:15:31;;;;;;;40.00;19.00;;;;;;;-147.86;100.00;-17609.17;105923;1251;59561;-44
2024/01/15 08:17:59;;;;;;;36.80;19.00;;;;;;;-147.86;100.00;-17609.17;105939;1256;72900;-43
2024/01/15 08:20:27;;;;;;;40.50;19.80;;;;;;;-147.86;100.00;-17609.17;105884;1257;63935;-44
2024/01/15 08:22:55;;;;;;;37.80;19.70;;;;;;;-147.86;100.00;-17609.17;105889;1254;71615;-43
2024/01/15 08:25:22;;;;;;;38.40;18.60;;;;;;;-147.86;100.00;-17609.17;105899;1256;59722;-43
2024/01/15 08:27:50;;;;;;;37.70;19.20;;;;;;;-147.86;100.00;-17609.17;105883;1257;59568;-43
2024/01/15 08:30:18;;;;;;;35.70;18.50;;;;;;;-147.86;100.00;-17609.17;105924;1251;71762;-43
2024/01/15 08:32:47;;;;;;;38.50;19.70;;;;;;;-147.86;100.00;-17609.17;105930;1253;64012;-44
2024/01/15 08:35:15;;;;;;;38.00;19.70;;;;;;;-147.86;100.00;-17609.17;105923;1254;71346;-43
2024/01/15 08:37:43;;;;;;;38.50;19.90;;;;;;;-147.86;100.00;-17609.17;105970;1258;59754;-43
2024/01/15 08:40:11;;;;;;;37.30;19.30;;;;;;;-147.86;100.00;-17609.17;105924;1257;59912;-43
2024/01/15 08:42:38;;;;;;;37.80;19.50;;;;;;;-147.86;100.00;-17609.17;105912;1256;73329;-42
2024/01/15 08:45:07;;;;;;;36.60;18.90;;;;;;;-147.86;100.00;-17609.17;105910;1252;63909;-43
2024/01/15 08:47:35;;;;;;;37.50;19.00;;;;;;;-147.86;100.00;-17609.17;105896;1254;71468;-43
2024/01/15 08:50:04;;;;;;;36.20;19.10;;;;;;;-147.86;100.00;-17609.17;105967;1257;59705;-44
2024/01/15 08:52:32;;;;;;;38.10;19.50;;;;;;;-147.86;100.00;-17609.17;105914;1258;61076;-44
2024/01/15 08:55:00;;;;;;;37.00;19.00;;;;;;;-147.86;100.00;-17609.17;105966;1251;73324;-42
2024/01/15 08:57:28;;;;;;;38.10;19.30;;;;;;;-147.86;100.00;-17609.17;105924;1257;66311;-43
2024/01/15 08:59:56;;;;;;;33.50;18.50;;;;;;;-147.86;100.00;-17609.17;105901;1257;73220;-43
2024/01/15 09:02:24;;;;;;;30.90;18.20;;;;;;;-147.86;100.00;-17609.17;105910;1257;60835;-43
2024/01/15 09:04:52;;;;;;;36.50;19.10;;;;;;;-147.86;100.00;-17609.17;105889;1257;59781;-43
2024/01/15 09:07:20;;;;;;;37.70;18.00;;;;;;;-147.86;100.00;-17609.17;105892;1257;73721;-43
2024/01/15 10:09:52;;;;;;;23.00;14.50;;;;;;;-147.86;97.42;-17609.17;102580;1292;600245;-44
2024/01/15 10:12:22;;;;;;;28.60;15.50;;;;;;;-147.86;97.23;-17609.17;104797;1271;59265;-46
2024/01/15 10:14:50;;;;;;;24.90;14.10;;;;;;;-147.86;96.50;-17609.17;104879;1266;60503;-48
2024/01/15 10:17:18;;;;;;;24.80;15.20;;;;;;;-147.86;95.11;-17609.17;104820;1271;72996;-46
2024/01/15 10:19:46;;;;;;;27.10;15.00;;;;;;;-147.86;95.19;-17609.17;104832;1265;64074;-46
2024/01/15 10:22:18;;;;;;;26.90;15.40;;;;;;;-147.86;95.08;-17609.17;104769;1271;74569;-44
2024/01/15 10:24:49;;;;;;;28.80;15.70;;;;;;;-147.86;94.09;-17609.17;104886;1264;59826;-44
2024/01/15 10:27:17;;;;;;;25.50;15.10;;;;;;;-147.86;94.35;-17609.17;105074;1266;60141;-44
2024/01/15 10:29:45;;;;;;;26.50;15.00;;;;;;;-147.86;94.29;-17609.17;104936;1264;74541;-45
2024/01/15 10:32:13;;;;;;;23.90;14.30;;;;;;;-147.86;95.13;-17609.17;104928;1264;64350;-47
2024/01/15 10:34:41;;;;;;;27.00;14.80;;;;;;;-147.86;95.60;-17609.17;104951;1270;74912;-43
2024/01/15 10:37:10;;;;;;;28.60;15.90;;;;;;;-147.86;96.04;-17609.17;105083;1268;59759;-44
2024/01/15 10:39:39;;;;;;;28.40;15.60;;;;;;;-147.86;96.33;-17609.17;105059;1265;59730;-43
2024/01/15 10:42:07;;;;;;;27.10;15.30;;;;;;;-147.86;96.40;-17609.17;104941;1264;71768;-45
2024/01/15 10:44:35;;;;;;;31.20;16.20;;;;;;;-147.86;96.44;-17609.17;105034;1268;65461;-44
2024/01/15 10:47:04;;;;;;;26.30;15.10;;;;;;;-147.86;96.36;-17609.17;104948;1265;71259;-44
2024/01/15 10:49:32;;;;;;;28.60;15.30;;;;;;;-147.86;95.93;-17609.17;105055;1265;61364;-44
2024/01/15 10:52:01;;;;;;;26.10;14.70;;;;;;;-147.86;95.55;-17609.17;104959;1271;59706;-47
2024/01/15 10:54:30;;;;;;;25.60;14.10;;;;;;;-147.86;96.08;-17609.17;104867;1270;75024;-44
2024/01/15 10:56:59;;;;;;;26.00;14.20;;;;;;;-147.86;96.45;-17609.17;104867;1266;64389;-45
2024/01/15 10:59:28;;;;;;;25.70;14.10;;;;;;;-147.86;96.32;-17609.17;105101;1264;73013;-46
2024/01/15 11:01:57;;;;;;;25.90;14.20;;;;;;;-147.86;95.70;-17609.17;105187;1265;59642;-47
2024/01/15 11:04:28;;;;;;;25.70;14.10;;;;;;;-147.86;95.12;-17609.17;105203;1264;59705;-45
2024/01/15 11:06:57;;;;;;;28.60;15.10;;;;;;;-147.86;94.27;-17609.17;105280;1257;74970;-46
2024/01/15 11:09:25;;;;;;;30.50;15.20;;;;;;;-147.86;94.28;-17609.17;105467;1259;65697;-45
2024/01/15 11:12:07;;;;;;;23.10;13.30;;;;;;;-147.86;93.88;-17609.17;105480;1262;73061;-45
2024/01/15 11:14:38;;;;;;;24.40;13.60;;;;;;;-147.86;93.76;-17609.17;105547;1257;59650;-45
2024/01/15 11:17:06;;;;;;;22.00;13.10;;;;;;;-147.86;93.81;-17609.17;105452;1262;60138;-45
2024/01/15 11:19:39;;;;;;;24.70;14.60;;;;;;;-147.86;92.91;-17609.17;105507;1262;75349;-47
2024/01/15 11:22:09;;;;;;;24.00;14.00;;;;;;;-147.86;92.61;-17609.17;105570;1258;64745;-47
2024/01/15 11:24:38;;;;;;;24.10;12.90;;;;;;;-147.86;92.71;-17609.17;105494;1262;74877;-44
2024/01/15 11:27:07;;;;;;;24.40;13.20;;;;;;;-147.86;93.24;-17609.17;105493;1259;59923;-46
2024/01/15 11:29:36;;;;;;;24.20;13.30;;;;;;;-147.86;92.60;-17609.17;105494;1257;59703;-45
2024/01/15 11:32:07;;;;;;;21.60;13.00;;;;;;;-147.86;91.70;-17609.17;105536;1260;72959;-46
2024/01/15 11:34:57;;;;;;;24.30;14.20;;;;;;;-147.86;91.57;-17609.17;105511;1262;66402;-46
2024/01/15 11:37:30;;;;;;;23.80;14.10;;;;;;;-147.86;91.68;-17609.17;105479;1259;74915;-47
2024/01/15 11:40:03;;;;;;;24.30;14.20;;;;;;;-147.86;90.62;-17609.17;105469;1259;60370;-47
2024/01/15 11:42:31;;;;;;;27.70;15.30;;;;;;;-147.86;89.80;-17609.17;105701;1253;59853;-47
2024/01/15 11:45:03;;;;;;;24.10;13.90;;;;;;;-147.86;89.93;-17609.17;105604;1260;72294;-46
2024/01/15 11:47:52;;;;;;;26.50;13.80;;;;;;;-147.86;88.83;-17609.17;105674;1258;65004;-46
2024/01/15 11:50:20;;;;;;;24.60;14.50;;;;;;;-147.86;89.15;-17609.17;105599;1259;70627;-46
2024/01/15 11:53:02;;;;;;;25.60;14.80;;;;;;;-147.86;90.03;-17609.17;105633;1254;59692;-46
2024/01/15 11:55:35;;;;;;;24.90;13.80;;;;;;;-147.86;90.45;-17609.17;105664;1258;59821;-47
2024/01/15 11:58:05;;;;;;;22.00;13.30;;;;;;;-147.86;91.08;-17609.17;105676;1258;72068;-46
2024/01/15 12:00:33;;;;;;;26.20;14.90;;;;;;;-147.86;91.47;-17609.17;105675;1258;64546;-46
2024/01/15 12:03:02;;;;;;;24.70;14.20;;;;;;;-147.86;90.74;-17609.17;105683;1258;71411;-46
2024/01/15 12:05:29;;;;;;;22.70;14.20;;;;;;;-147.86;90.22;-17609.17;105645;1258;61586;-47
2024/01/15 12:07:57;;;;;;;25.40;15.30;;;;;;;-147.86;90.35;-17609.17;105669;1258;59791;-49
2024/01/15 12:10:25;;;;;;;23.40;13.30;;;;;;;-147.86;90.58;-17609.17;105638;1258;72632;-46
2024/01/15 12:13:00;;;;;;;27.20;14.50;;;;;;;-147.86;91.20;-17609.17;105674;1253;67237;-47
2024/01/15 12:15:29;;;;;;;23.90;11.00;;;;;;;-147.86;90.80;-17609.17;105719;1259;71457;-47
2024/01/15 12:17:58;;;;;;;27.10;15.50;;;;;;;-147.86;89.69;-17609.17;105641;1258;60133;-47
2024/01/15 12:20:27;;;;;;;27.00;15.10;;;;;;;-147.86;89.93;-17609.17;105692;1258;60846;-45
2024/01/15 12:22:57;;;;;;;34.60;16.00;;;;;;;-147.86;90.30;-17609.17;105626;1253;73345;-45
2024/01/15 12:25:30;;;;;;;25.70;14.90;;;;;;;-147.86;90.23;-17609.17;105610;1258;65685;-45
2024/01/15 12:27:58;;;;;;;27.80;14.70;;;;;;;-147.86;90.01;-17609.17;105667;1253;71783;-46
2024/01/15 12:30:27;;;;;;;27.80;15.60;;;;;;;-147.86;90.39;-17609.17;105715;1253;59680;-49
2024/01/15 12:32:55;;;;;;;30.70;16.20;;;;;;;-147.86;90.68;-17609.17;105701;1253;62008;-47
2024/01/15 12:35:24;;;;;;;27.40;15.60;;;;;;;-147.86;91.26;-17609.17;105698;1253;72091;-47
2024/01/15 12:37:51;;;;;;;27.70;16.10;;;;;;;-147.86;92.14;-17609.17;105718;1254;65998;-46
2024/01/15 12:40:19;;;;;;;34.20;17.20;;;;;;;-147.86;93.20;-17609.17;105683;1259;72643;-47
2024/01/15 12:42:47;;;;;;;27.60;14.60;;;;;;;-147.86;93.94;-17609.17;105657;1258;60041;-46
2024/01/15 12:45:15;;;;;;;29.40;17.00;;;;;;;-147.86;94.60;-17609.17;105671;1253;62044;-47
2024/01/15 12:47:43;;;;;;;28.60;16.30;;;;;;;-147.86;95.51;-17609.17;105688;1258;73142;-47
2024/01/15 12:50:11;;;;;;;27.00;15.50;;;;;;;-147.86;96.51;-17609.17;105705;1253;67133;-47
2024/01/15 12:52:46;;;;;;;28.20;16.00;;;;;;;-147.86;97.35;-17609.17;105603;1253;74906;-47
2024/01/15 12:55:15;;;;;;;30.20;16.00;;;;;;;-147.86;98.09;-17609.17;105650;1258;60202;-47
2024/01/15 12:57:44;;;;;;;30.60;17.30;;;;;;;-147.86;98.90;-17609.17;105699;1253;59774;-46
2024/01/15 13:00:13;;;;;;;32.00;17.90;;;;;;;-147.86;99.71;-17609.17;105655;1258;72925;-46
2024/01/15 13:02:44;;;;;;;27.10;15.50;;;;;;;-147.86;100.00;-17609.17;105700;1258;67620;-47
2024/01/15 13:05:12;;;;;;;28.80;16.20;;;;;;;-147.86;100.00;-17609.17;105606;1253;74490;-48
2024/01/15 13:07:42;;;;;;;29.60;15.80;;;;;;;-147.86;100.00;-17609.17;105655;1259;61357;-47
2024/01/15 13:10:12;;;;;;;28.70;15.90;;;;;;;-147.86;100.00;-17609.17;105691;1258;62295;-48
2024/01/15 13:12:40;;;;;;;34.00;17.30;;;;;;;-147.86;100.00;-17609.17;105679;1254;73423;-46
2024/01/15 13:15:12;;;;;;;29.10;16.60;;;;;;;-147.86;100.00;-17609.17;105665;1253;65362;-48
2024/01/15 13:17:42;;;;;;;32.70;17.00;;;;;;;-147.86;100.00;-17609.17;105645;1254;72189;-47
2024/01/15 13:20:11;;;;;;;30.10;17.60;;;;;;;-147.86;100.00;-17609.17;105679;1258;60039;-49
2024/01/15 13:22:43;;;;;;;32.40;17.20;;;;;;;-147.86;100.00;-17609.17;105689;1253;59758;-46
2024/01/15 13:25:12;;;;;;;29.30;15.90;;;;;;;-147.86;100.00;-17609.17;105713;1258;71696;-48
2024/01/15 13:27:40;;;;;;;30.50;17.10;;;;;;;-147.86;100.00;-17609.17;105667;1258;64602;-48
2024/01/15 13:30:10;;;;;;;28.60;16.50;;;;;;;-147.86;100.00;-17609.17;105656;1259;72609;-47
2024/01/15 13:32:39;;;;;;;30.40;17.70;;;;;;;-147.86;100.00;-17609.17;105692;1258;59648;-47
2024/01/15 13:35:09;;;;;;;32.20;17.30;;;;;;;-147.86;100.00;-17609.17;105756;1253;62398;-47
2024/01/15 13:37:38;;;;;;;31.80;17.40;;;;;;;-147.86;100.00;-17609.17;105687;1258;72970;-48
2024/01/15 13:40:07;;;;;;;31.00;16.40;;;;;;;-147.86;100.00;-17609.17;105710;1258;65141;-47
2024/01/15 13:42:38;;;;;;;35.30;17.20;;;;;;;-147.86;100.00;-17609.17;105637;1256;71084;-45
2024/01/15 13:45:07;;;;;;;30.90;16.90;;;;;;;-147.86;100.00;-17609.17;105626;1258;59648;-48
2024/01/15 13:47:35;;;;;;;39.50;19.30;;;;;;;-147.86;100.00;-17609.17;105732;1254;62275;-47
2024/01/15 13:50:04;;;;;;;32.00;16.90;;;;;;;-147.86;100.00;-17609.17;105604;1258;73288;-48
2024/01/15 13:52:32;;;;;;;34.90;18.10;;;;;;;-147.86;100.00;-17609.17;105685;1258;67676;-47
2024/01/15 13:55:00;;;;;;;32.90;17.80;;;;;;;-147.86;100.00;-17609.17;105627;1258;73692;-47
2024/01/15 13:57:28;;;;;;;34.80;17.70;;;;;;;-147.86;100.00;-17609.17;105690;1258;60451;-47
2024/01/15 13:59:56;;;;;;;35.60;18.50;;;;;;;-147.86;100.00;-17609.17;105697;1254;60325;-48
2024/01/15 14:02:24;;;;;;;34.10;18.10;;;;;;;-147.86;100.00;-17609.17;105651;1258;72322;-47
2024/01/15 14:04:53;;;;;;;33.30;17.70;;;;;;;-147.86;100.00;-17609.17;105667;1259;65444;-47
2024/01/15 14:07:22;;;;;;;35.50;17.60;;;;;;;-147.86;100.00;-17609.17;105648;1253;74539;-47
2024/01/15 14:09:49;;;;;;;30.80;16.80;;;;;;;-147.86;100.00;-17609.17;105636;1253;61790;-47
2024/01/15 14:12:17;;;;;;;40.00;19.10;;;;;;;-147.86;100.00;-17609.17;105629;1258;61211;-49
2024/01/15 14:14:45;;;;;;;33.00;18.60;;;;;;;-147.86;100.00;-17609.17;105643;1258;72037;-51
2024/01/15 14:17:13;;;;;;;33.90;17.20;;;;;;;-147.86;100.00;-17609.17;105686;1253;63790;-46
2024/01/15 14:19:41;;;;;;;33.90;17.60;;;;;;;-147.86;100.00;-17609.17;105693;1253;73024;-46
2024/01/15 14:22:09;;;;;;;31.60;17.90;;;;;;;-147.86;100.00;-17609.17;105672;1258;61077;-46
2024/01/15 14:24:37;;;;;;;34.90;18.60;;;;;;;-147.86;100.00;-17609.17;105744;1253;60605;-47
2024/01/15 14:27:07;;;;;;;34.20;18.80;;;;;;;-147.86;100.00;-17609.17;105624;1254;73699;-49
2024/01/15 14:29:35;;;;;;;34.70;18.70;;;;;;;-147.86;100.00;-17609.17;105650;1258;67640;-45
2024/01/15 14:32:03;;;;;;;35.50;19.30;;;;;;;-147.86;100.00;-17609.17;105657;1253;72303;-46
2024/01/15 14:34:31;;;;;;;33.80;18.40;;;;;;;-147.86;100.00;-17609.17;105696;1258;60495;-48
2024/01/15 14:36:59;;;;;;;36.90;19.00;;;;;;;-147.86;100.00;-17609.17;105614;1253;62283;-46
2024/01/15 14:39:27;;;;;;;35.10;18.40;;;;;;;-147.86;100.00;-17609.17;105638;1258;73575;-47
2024/01/15 14:41:55;;;;;;;35.50;19.20;;;;;;;-147.86;100.00;-17609.17;105624;1258;65066;-47
2024/01/15 14:44:22;;;;;;;38.80;19.50;;;;;;;-147.86;100.00;-17609.17;105638;1258;72135;-49
2024/01/15 14:48:13;;;;;;;38.20;19.00;;;;;;;-147.86;100.00;-17609.17;102758;1292;601005;-49
2024/01/15 14:50:41;;;;;;;33.60;18.30;;;;;;;-147.86;100.00;-17609.17;104895;1264;59557;-46
2024/01/15 14:53:10;;;;;;;36.30;18.70;;;;;;;-147.86;100.00;-17609.17;104855;1270;62325;-45
2024/01/15 14:55:38;;;;;;;32.90;17.60;;;;;;;-147.86;100.00;-17609.17;104880;1266;72805;-46
2024/01/15 14:58:05;;;;;;;35.20;18.90;;;;;;;-147.86;100.00;-17609.17;104895;1269;67173;-46
2024/01/15 15:00:33;;;;;;;34.70;18.30;;;;;;;-147.86;100.00;-17609.17;104927;1267;72933;-48
2024/01/15 15:03:02;;;;;;;31.30;16.90;;;;;;;-147.86;100.00;-17609.17;104963;1267;197370;-47
2024/01/15 15:05:30;;;;;;;29.80;16.10;;;;;;;-147.86;100.00;-17609.17;105232;1266;59337;-46
2024/01/15 15:07:58;;;;;;;31.50;17.00;;;;;;;-147.86;100.00;-17609.17;105091;1264;71023;-49
2024/01/15 15:10:26;;;;;;;37.50;17.90;;;;;;;-147.86;100.00;-17609.17;105067;1268;65114;-49
2024/01/15 15:12:55;;;;;;;31.30;16.50;;;;;;;-147.86;100.00;-17609.17;105164;1264;75394;-47
2024/01/15 15:15:23;;;;;;;32.00;17.70;;;;;;;-147.86;100.00;-17609.17;105083;1264;63497;-50
2024/01/15 15:17:51;;;;;;;31.70;16.60;;;;;;;-147.86;100.00;-17609.17;105071;1264;60343;-47
2024/01/15 15:20:20;;;;;;;31.20;16.40;;;;;;;-147.86;100.00;-17609.17;105105;1265;71156;-49
2024/01/15 15:22:48;;;;;;;32.20;16.80;;;;;;;-147.86;100.00;-17609.17;105120;1264;64300;-50
2024/01/15 15:25:16;;;;;;;29.40;16.70;;;;;;;-147.86;100.00;-17609.17;105608;1256;72359;-50
2024/01/15 15:27:44;;;;;;;34.10;16.40;;;;;;;-147.86;100.00;-17609.17;105587;1261;60097;-52
2024/01/15 15:30:13;;;;;;;31.60;16.20;;;;;;;-147.86;100.00;-17609.17;105635;1256;60764;-49
2024/01/15 15:32:41;;;;;;;35.40;16.70;;;;;;;-147.86;100.00;-17609.17;105563;1261;72820;-47
2024/01/15 15:35:10;;;;;;;30.40;16.70;;;;;;;-147.86;100.00;-17609.17;105570;1261;66755;-48
2024/01/15 15:37:38;;;;;;;29.90;15.20;;;;;;;-147.86;100.00;-17609.17;105652;1260;72276;-49
2024/01/15 15:40:08;;;;;;;30.50;16.20;;;;;;;-147.86;100.00;-17609.17;105580;1260;61514;-49
2024/01/15 15:42:37;;;;;;;31.60;16.50;;;;;;;-147.86;100.00;-17609.17;105601;1261;61070;-50
2024/01/15 15:45:05;;;;;;;30.00;16.40;;;;;;;-147.86;100.00;-17609.17;105544;1257;73239;-49
2024/01/15 15:47:33;;;;;;;31.40;16.00;;;;;;;-147.86;100.00;-17609.17;105630;1260;65309;-47